IBE55M LEMD-LICJ
Flight info
| Callsign | IBE55M |
|---|---|
| Flight time | 1h 56m |
| Altitude | 38000 |
| Route | PINAR DCT SEGRE DCT BRITO DCT PISUS DCT PONEN DCT SEROX DCT VILAR/N0433F390 DCT KARES/N0428F380 DCT BISES DCT BCN/N0430F390 DCT DIPES/N0426F380 N725 OSPOK/N0427F390 DCT NOLVI DCT ORKUM/N0418F380 DCT ELSAG DCT ALG/N0424F390 DCT GERMO DCT GIANO |
| Aircraft | A20N/M-SDE2E3FGHIRWXY/LB1 |
Departure
| Time | 2026-05-07 14:20 |
|---|---|
| Airport | Adolfo Suárez Madrid–Barajas Airport (LEMD) |
Arrival
| Time | 2026-05-07 16:16 |
|---|---|
| Airport | Falcone–Borsellino Airport (LICJ) |
| Time | Latitude | Longitude | Altitude | Speed | Heading |
|---|---|---|---|---|---|
| 2026-05-07 13:51 | 40.49079 | -3.58964 | 2022 ft | 0 kts | 271° |
| 2026-05-07 14:05 | 40.49079 | -3.58962 | 2030 ft | 0 kts | 271° |
| 2026-05-07 14:06 | 40.49079 | -3.58954 | 2028 ft | 1 kts | 271° |
| 2026-05-07 14:06 | 40.49079 | -3.58946 | 2025 ft | 1 kts | 271° |
| 2026-05-07 14:06 | 40.49079 | -3.58938 | 2022 ft | 1 kts | 271° |
| 2026-05-07 14:06 | 40.49079 | -3.58928 | 2022 ft | 1 kts | 271° |
| 2026-05-07 14:07 | 40.49079 | -3.58912 | 2022 ft | 2 kts | 271° |
| 2026-05-07 14:07 | 40.49084 | -3.58885 | 2033 ft | 4 kts | 220° |
| 2026-05-07 14:07 | 40.49094 | -3.58878 | 2033 ft | 0 kts | 172° |
| 2026-05-07 14:10 | 40.49092 | -3.58877 | 2022 ft | 1 kts | 172° |
| 2026-05-07 14:11 | 40.49077 | -3.58878 | 2028 ft | 4 kts | 186° |
| 2026-05-07 14:11 | 40.49032 | -3.58881 | 2026 ft | 9 kts | 180° |
| 2026-05-07 14:11 | 40.48953 | -3.58881 | 2028 ft | 13 kts | 180° |
| 2026-05-07 14:11 | 40.48843 | -3.58879 | 2022 ft | 19 kts | 179° |
| 2026-05-07 14:12 | 40.48756 | -3.58842 | 2026 ft | 8 kts | 104° |
| 2026-05-07 14:12 | 40.48759 | -3.58795 | 2022 ft | 8 kts | 90° |
| 2026-05-07 14:12 | 40.48764 | -3.58687 | 2022 ft | 16 kts | 79° |
| 2026-05-07 14:12 | 40.48760 | -3.58541 | 2018 ft | 18 kts | 89° |
| 2026-05-07 14:13 | 40.48759 | -3.58370 | 2014 ft | 21 kts | 90° |
| 2026-05-07 14:13 | 40.48761 | -3.58150 | 2006 ft | 26 kts | 89° |
| 2026-05-07 14:13 | 40.48763 | -3.57960 | 1999 ft | 13 kts | 89° |
| 2026-05-07 14:13 | 40.48764 | -3.57819 | 1994 ft | 18 kts | 89° |
| 2026-05-07 14:14 | 40.48762 | -3.57657 | 1991 ft | 18 kts | 89° |
| 2026-05-07 14:14 | 40.48762 | -3.57485 | 1989 ft | 20 kts | 90° |
| 2026-05-07 14:14 | 40.48765 | -3.57292 | 1985 ft | 23 kts | 88° |
| 2026-05-07 14:14 | 40.48768 | -3.57070 | 1980 ft | 26 kts | 90° |
| 2026-05-07 14:15 | 40.48768 | -3.56827 | 1977 ft | 28 kts | 90° |
| 2026-05-07 14:15 | 40.48767 | -3.56566 | 1973 ft | 30 kts | 90° |
| 2026-05-07 14:15 | 40.48767 | -3.56414 | 1966 ft | 15 kts | 89° |
| 2026-05-07 14:15 | 40.48767 | -3.56254 | 1962 ft | 20 kts | 90° |
| 2026-05-07 14:16 | 40.48808 | -3.56136 | 1959 ft | 10 kts | 7° |
| 2026-05-07 14:16 | 40.48880 | -3.56138 | 1959 ft | 12 kts | 1° |
| 2026-05-07 14:16 | 40.48970 | -3.56137 | 1958 ft | 15 kts | 360° |
| 2026-05-07 14:16 | 40.49083 | -3.56138 | 1958 ft | 17 kts | 360° |
| 2026-05-07 14:17 | 40.49211 | -3.56139 | 1958 ft | 19 kts | 0° |
| 2026-05-07 14:17 | 40.49352 | -3.56140 | 1959 ft | 21 kts | 359° |
| 2026-05-07 14:17 | 40.49485 | -3.56143 | 1959 ft | 16 kts | 359° |
| 2026-05-07 14:17 | 40.49554 | -3.56077 | 1959 ft | 6 kts | 84° |
| 2026-05-07 14:18 | 40.49554 | -3.56075 | 1959 ft | 0 kts | 85° |
| 2026-05-07 14:18 | 40.49555 | -3.56037 | 1959 ft | 8 kts | 89° |
| 2026-05-07 14:18 | 40.49554 | -3.55935 | 1960 ft | 14 kts | 94° |
| 2026-05-07 14:19 | 40.49504 | -3.55808 | 1963 ft | 17 kts | 145° |
| 2026-05-07 14:19 | 40.49433 | -3.55737 | 1962 ft | 24 kts | 141° |
| 2026-05-07 14:19 | 40.49055 | -3.55347 | 1954 ft | 113 kts | 142° |
| 2026-05-07 14:19 | 40.48241 | -3.54528 | 2048 ft | 171 kts | 141° |
| 2026-05-07 14:20 | 40.47272 | -3.53585 | 2902 ft | 177 kts | 142° |
| 2026-05-07 14:20 | 40.46283 | -3.52643 | 3957 ft | 178 kts | 143° |
| 2026-05-07 14:20 | 40.44863 | -3.51277 | 4830 ft | 204 kts | 143° |
| 2026-05-07 14:20 | 40.44069 | -3.50501 | 5286 ft | 217 kts | 143° |
| 2026-05-07 14:21 | 40.42833 | -3.49245 | 6048 ft | 235 kts | 143° |
| 2026-05-07 14:21 | 40.41476 | -3.47844 | 6671 ft | 259 kts | 143° |
| 2026-05-07 14:21 | 40.40019 | -3.46343 | 7416 ft | 272 kts | 143° |
| 2026-05-07 14:21 | 40.38521 | -3.44803 | 8455 ft | 275 kts | 143° |
| 2026-05-07 14:22 | 40.36500 | -3.42749 | 9821 ft | 281 kts | 146° |
| 2026-05-07 14:22 | 40.35373 | -3.41815 | 10364 ft | 288 kts | 152° |
| 2026-05-07 14:22 | 40.33550 | -3.40502 | 10854 ft | 311 kts | 152° |
| 2026-05-07 14:22 | 40.31825 | -3.38619 | 11332 ft | 336 kts | 130° |
| 2026-05-07 14:23 | 40.30735 | -3.35917 | 12158 ft | 348 kts | 109° |
| 2026-05-07 14:23 | 40.30397 | -3.32704 | 12707 ft | 356 kts | 93° |
| 2026-05-07 14:23 | 40.30463 | -3.29448 | 12891 ft | 359 kts | 84° |
| 2026-05-07 14:23 | 40.31129 | -3.26337 | 12999 ft | 364 kts | 66° |
| 2026-05-07 14:24 | 40.32487 | -3.23533 | 13225 ft | 368 kts | 50° |
| 2026-05-07 14:24 | 40.34173 | -3.20989 | 14075 ft | 370 kts | 50° |
| 2026-05-07 14:24 | 40.35845 | -3.18408 | 14950 ft | 373 kts | 50° |
| 2026-05-07 14:24 | 40.37527 | -3.15796 | 15737 ft | 377 kts | 48° |
| 2026-05-07 14:25 | 40.39573 | -3.13619 | 16488 ft | 382 kts | 28° |
| 2026-05-07 14:25 | 40.42063 | -3.12416 | 17270 ft | 384 kts | 9° |
| 2026-05-07 14:25 | 40.44733 | -3.12308 | 18029 ft | 386 kts | 351° |
| 2026-05-07 14:25 | 40.47367 | -3.13008 | 18704 ft | 389 kts | 344° |
| 2026-05-07 14:26 | 40.49992 | -3.13935 | 19366 ft | 392 kts | 343° |
| 2026-05-07 14:26 | 40.52639 | -3.14868 | 20012 ft | 397 kts | 343° |
| 2026-05-07 14:26 | 40.55330 | -3.15755 | 20663 ft | 401 kts | 345° |
| 2026-05-07 14:26 | 40.58061 | -3.16603 | 21310 ft | 405 kts | 345° |
| 2026-05-07 14:27 | 40.60821 | -3.17430 | 21930 ft | 409 kts | 346° |
| 2026-05-07 14:27 | 40.63616 | -3.18254 | 22566 ft | 413 kts | 346° |
| 2026-05-07 14:27 | 40.66431 | -3.19080 | 23190 ft | 417 kts | 346° |
| 2026-05-07 14:27 | 40.69287 | -3.19919 | 23762 ft | 422 kts | 346° |
| 2026-05-07 14:28 | 40.72157 | -3.20763 | 24277 ft | 425 kts | 346° |
| 2026-05-07 14:28 | 40.75059 | -3.21599 | 24809 ft | 429 kts | 349° |
| 2026-05-07 14:28 | 40.78046 | -3.21805 | 25294 ft | 434 kts | 4° |
| 2026-05-07 14:28 | 40.81014 | -3.21040 | 25784 ft | 438 kts | 18° |
| 2026-05-07 14:29 | 40.83776 | -3.19348 | 26258 ft | 440 kts | 33° |
| 2026-05-07 14:29 | 40.86172 | -3.16823 | 26716 ft | 442 kts | 47° |
| 2026-05-07 14:29 | 40.88059 | -3.13623 | 27142 ft | 444 kts | 61° |
| 2026-05-07 14:29 | 40.89339 | -3.09911 | 27582 ft | 444 kts | 75° |
| 2026-05-07 14:30 | 40.89980 | -3.05985 | 28002 ft | 444 kts | 84° |
| 2026-05-07 14:30 | 40.90403 | -3.01942 | 28350 ft | 448 kts | 84° |
| 2026-05-07 14:30 | 40.90910 | -2.97854 | 28768 ft | 452 kts | 82° |
| 2026-05-07 14:30 | 40.91547 | -2.93765 | 29189 ft | 455 kts | 79° |
| 2026-05-07 14:31 | 40.92274 | -2.89684 | 29550 ft | 459 kts | 78° |
| 2026-05-07 14:31 | 40.93055 | -2.85578 | 29943 ft | 462 kts | 78° |
| 2026-05-07 14:31 | 40.93861 | -2.81440 | 30272 ft | 465 kts | 78° |
| 2026-05-07 14:31 | 40.94674 | -2.77277 | 30573 ft | 469 kts | 77° |
| 2026-05-07 14:32 | 40.95489 | -2.73090 | 30879 ft | 472 kts | 77° |
| 2026-05-07 14:32 | 40.96306 | -2.68871 | 31214 ft | 474 kts | 77° |
| 2026-05-07 14:32 | 40.97125 | -2.64638 | 31566 ft | 476 kts | 77° |
| 2026-05-07 14:32 | 40.97944 | -2.60386 | 31944 ft | 477 kts | 77° |
| 2026-05-07 14:33 | 40.98760 | -2.56133 | 32378 ft | 477 kts | 77° |
| 2026-05-07 14:33 | 40.99574 | -2.51878 | 32796 ft | 477 kts | 77° |
| 2026-05-07 14:33 | 41.00387 | -2.47621 | 33211 ft | 477 kts | 77° |
| 2026-05-07 14:33 | 41.01197 | -2.43369 | 33610 ft | 477 kts | 77° |
| 2026-05-07 14:34 | 41.02006 | -2.39115 | 33992 ft | 477 kts | 77° |
| 2026-05-07 14:34 | 41.02813 | -2.34859 | 34303 ft | 477 kts | 77° |
| 2026-05-07 14:34 | 41.03619 | -2.30599 | 34604 ft | 477 kts | 77° |
| 2026-05-07 14:34 | 41.04426 | -2.26336 | 34904 ft | 477 kts | 77° |
| 2026-05-07 14:35 | 41.05231 | -2.22073 | 35190 ft | 477 kts | 77° |
| 2026-05-07 14:35 | 41.06034 | -2.17804 | 35452 ft | 478 kts | 77° |
| 2026-05-07 14:35 | 41.06838 | -2.13521 | 35707 ft | 479 kts | 77° |
| 2026-05-07 14:35 | 41.07640 | -2.09236 | 35963 ft | 480 kts | 78° |
| 2026-05-07 14:36 | 41.08443 | -2.04940 | 36209 ft | 480 kts | 78° |
| 2026-05-07 14:36 | 41.09244 | -2.00641 | 36449 ft | 481 kts | 78° |
| 2026-05-07 14:36 | 41.10048 | -1.96325 | 36697 ft | 482 kts | 78° |
| 2026-05-07 14:36 | 41.10849 | -1.92011 | 36927 ft | 482 kts | 78° |
| 2026-05-07 14:37 | 41.11652 | -1.87683 | 37090 ft | 485 kts | 78° |
| 2026-05-07 14:37 | 41.13254 | -1.79010 | 37578 ft | 485 kts | 78° |
| 2026-05-07 14:37 | 41.14054 | -1.74662 | 37797 ft | 485 kts | 78° |
| 2026-05-07 14:38 | 41.14853 | -1.70308 | 37930 ft | 486 kts | 78° |
| 2026-05-07 14:38 | 41.15652 | -1.65948 | 37938 ft | 486 kts | 78° |
| 2026-05-07 14:38 | 41.17240 | -1.57250 | 37942 ft | 484 kts | 78° |
| 2026-05-07 14:39 | 41.18821 | -1.48548 | 37940 ft | 486 kts | 78° |
| 2026-05-07 14:39 | 41.20402 | -1.39807 | 37941 ft | 486 kts | 78° |
| 2026-05-07 14:40 | 41.21973 | -1.31075 | 37947 ft | 487 kts | 78° |
| 2026-05-07 14:40 | 41.23542 | -1.22320 | 37953 ft | 487 kts | 79° |
| 2026-05-07 14:41 | 41.25104 | -1.13556 | 37942 ft | 488 kts | 79° |
| 2026-05-07 14:41 | 41.26663 | -1.04777 | 37945 ft | 488 kts | 79° |
| 2026-05-07 14:42 | 41.28204 | -0.96052 | 37946 ft | 488 kts | 79° |
| 2026-05-07 14:42 | 41.29750 | -0.87252 | 37946 ft | 489 kts | 79° |
| 2026-05-07 14:43 | 41.31290 | -0.78447 | 37948 ft | 489 kts | 79° |
| 2026-05-07 14:43 | 41.32826 | -0.69636 | 37933 ft | 489 kts | 80° |
| 2026-05-07 14:44 | 41.34354 | -0.60814 | 37931 ft | 489 kts | 80° |
| 2026-05-07 14:44 | 41.35308 | -0.51927 | 37932 ft | 481 kts | 91° |
| 2026-05-07 14:45 | 41.35302 | -0.43046 | 37931 ft | 480 kts | 94° |
| 2026-05-07 14:45 | 41.35244 | -0.34159 | 37930 ft | 480 kts | 94° |
| 2026-05-07 14:46 | 41.35177 | -0.25275 | 37927 ft | 480 kts | 94° |
| 2026-05-07 14:46 | 41.35098 | -0.16394 | 37929 ft | 480 kts | 94° |
| 2026-05-07 14:47 | 41.35010 | -0.07512 | 37928 ft | 480 kts | 94° |
| 2026-05-07 14:47 | 41.34917 | 0.01375 | 37919 ft | 480 kts | 95° |
| 2026-05-07 14:48 | 41.34816 | 0.10267 | 37929 ft | 481 kts | 95° |
| 2026-05-07 14:48 | 41.34708 | 0.19172 | 37919 ft | 481 kts | 95° |
| 2026-05-07 14:49 | 41.34593 | 0.28080 | 37920 ft | 482 kts | 95° |
| 2026-05-07 14:49 | 41.34471 | 0.36994 | 37927 ft | 482 kts | 95° |
| 2026-05-07 14:50 | 41.34343 | 0.45918 | 37933 ft | 482 kts | 96° |
| 2026-05-07 14:50 | 41.34206 | 0.54852 | 37941 ft | 483 kts | 96° |
| 2026-05-07 14:51 | 41.34062 | 0.63803 | 37951 ft | 484 kts | 96° |
| 2026-05-07 14:51 | 41.33912 | 0.72768 | 37941 ft | 484 kts | 96° |
| 2026-05-07 14:52 | 41.33758 | 0.81627 | 37945 ft | 482 kts | 96° |
| 2026-05-07 14:52 | 41.33594 | 0.90552 | 37946 ft | 482 kts | 96° |
| 2026-05-07 14:53 | 41.33423 | 0.99470 | 37959 ft | 482 kts | 96° |
| 2026-05-07 14:53 | 41.33246 | 1.08386 | 37960 ft | 482 kts | 96° |
| 2026-05-07 14:54 | 41.33062 | 1.17292 | 37963 ft | 481 kts | 97° |
| 2026-05-07 14:54 | 41.32874 | 1.26162 | 37963 ft | 479 kts | 97° |
| 2026-05-07 14:55 | 41.32677 | 1.35029 | 37974 ft | 480 kts | 97° |
| 2026-05-07 14:55 | 41.32473 | 1.43916 | 37962 ft | 480 kts | 97° |
| 2026-05-07 14:56 | 41.32262 | 1.52790 | 37947 ft | 480 kts | 97° |
| 2026-05-07 14:56 | 41.32046 | 1.61651 | 37967 ft | 479 kts | 97° |
| 2026-05-07 14:57 | 41.31822 | 1.70496 | 37961 ft | 478 kts | 97° |
| 2026-05-07 14:57 | 41.31592 | 1.79327 | 37972 ft | 478 kts | 97° |
| 2026-05-07 14:58 | 41.31356 | 1.88159 | 37955 ft | 478 kts | 97° |
| 2026-05-07 14:58 | 41.31114 | 1.96975 | 37966 ft | 477 kts | 97° |
| 2026-05-07 14:59 | 41.30864 | 2.05780 | 37964 ft | 476 kts | 97° |
| 2026-05-07 14:59 | 41.30126 | 2.14456 | 37955 ft | 468 kts | 108° |
| 2026-05-07 15:00 | 41.28722 | 2.22886 | 37954 ft | 467 kts | 108° |
| 2026-05-07 15:00 | 41.27331 | 2.31324 | 37951 ft | 467 kts | 109° |
| 2026-05-07 15:01 | 41.25955 | 2.39623 | 37957 ft | 467 kts | 109° |
| 2026-05-07 15:01 | 41.24548 | 2.48057 | 37959 ft | 468 kts | 109° |
| 2026-05-07 15:02 | 41.23134 | 2.56494 | 37963 ft | 468 kts | 109° |
| 2026-05-07 15:02 | 41.21722 | 2.64877 | 37965 ft | 468 kts | 109° |
| 2026-05-07 15:03 | 41.20294 | 2.73315 | 37960 ft | 469 kts | 109° |
| 2026-05-07 15:03 | 41.18858 | 2.81761 | 37962 ft | 469 kts | 109° |
| 2026-05-07 15:04 | 41.17413 | 2.90215 | 37965 ft | 470 kts | 109° |
| 2026-05-07 15:04 | 41.15962 | 2.98670 | 37971 ft | 470 kts | 109° |
| 2026-05-07 15:05 | 41.14503 | 3.07133 | 37955 ft | 471 kts | 109° |
| 2026-05-07 15:05 | 41.13035 | 3.15602 | 37961 ft | 471 kts | 109° |
| 2026-05-07 15:06 | 41.11560 | 3.24078 | 37967 ft | 472 kts | 109° |
| 2026-05-07 15:06 | 41.10076 | 3.32564 | 37970 ft | 473 kts | 109° |
| 2026-05-07 15:07 | 41.08837 | 3.39616 | 37978 ft | 473 kts | 109° |
| 2026-05-07 15:07 | 41.07086 | 3.49540 | 37969 ft | 473 kts | 110° |
| 2026-05-07 15:08 | 41.05836 | 3.56600 | 37974 ft | 473 kts | 110° |
| 2026-05-07 15:08 | 41.04324 | 3.65089 | 37974 ft | 474 kts | 110° |
| 2026-05-07 15:09 | 41.02806 | 3.73578 | 37971 ft | 474 kts | 110° |
| 2026-05-07 15:09 | 41.01281 | 3.82066 | 37947 ft | 474 kts | 110° |
| 2026-05-07 15:10 | 40.99743 | 3.90574 | 37963 ft | 476 kts | 110° |
| 2026-05-07 15:10 | 40.98200 | 3.99086 | 37963 ft | 475 kts | 110° |
| 2026-05-07 15:11 | 40.96651 | 4.07589 | 37960 ft | 475 kts | 110° |
| 2026-05-07 15:11 | 40.95095 | 4.16090 | 37960 ft | 475 kts | 110° |
| 2026-05-07 15:12 | 40.93534 | 4.24583 | 37960 ft | 475 kts | 110° |
| 2026-05-07 15:12 | 40.91967 | 4.33067 | 37962 ft | 475 kts | 110° |
| 2026-05-07 15:13 | 40.90405 | 4.41487 | 37965 ft | 475 kts | 110° |
| 2026-05-07 15:13 | 40.88828 | 4.49957 | 37965 ft | 475 kts | 110° |
| 2026-05-07 15:14 | 40.87244 | 4.58422 | 37938 ft | 475 kts | 110° |
| 2026-05-07 15:14 | 40.85717 | 4.66924 | 37954 ft | 478 kts | 106° |
| 2026-05-07 15:15 | 40.84862 | 4.75688 | 37957 ft | 482 kts | 103° |
| 2026-05-07 15:15 | 40.84055 | 4.84473 | 37960 ft | 482 kts | 103° |
| 2026-05-07 15:16 | 40.83234 | 4.93259 | 37961 ft | 482 kts | 103° |
| 2026-05-07 15:16 | 40.82407 | 5.02044 | 37947 ft | 483 kts | 103° |
| 2026-05-07 15:17 | 40.81570 | 5.10859 | 37952 ft | 484 kts | 103° |
| 2026-05-07 15:17 | 40.80726 | 5.19671 | 37959 ft | 484 kts | 103° |
| 2026-05-07 15:18 | 40.79874 | 5.28500 | 37963 ft | 485 kts | 103° |
| 2026-05-07 15:18 | 40.79015 | 5.37331 | 37945 ft | 486 kts | 103° |
| 2026-05-07 15:19 | 40.78148 | 5.46173 | 37949 ft | 486 kts | 103° |
| 2026-05-07 15:19 | 40.77117 | 5.54944 | 37928 ft | 482 kts | 110° |
| 2026-05-07 15:20 | 40.76102 | 5.63756 | 37954 ft | 489 kts | 107° |
| 2026-05-07 15:20 | 40.75215 | 5.72652 | 37949 ft | 489 kts | 106° |
| 2026-05-07 15:21 | 40.74352 | 5.81565 | 37963 ft | 490 kts | 106° |
| 2026-05-07 15:21 | 40.73478 | 5.90479 | 37960 ft | 490 kts | 105° |
| 2026-05-07 15:22 | 40.72592 | 5.99382 | 37960 ft | 490 kts | 105° |
| 2026-05-07 15:22 | 40.71691 | 6.08274 | 37959 ft | 490 kts | 105° |
| 2026-05-07 15:23 | 40.70786 | 6.17117 | 37952 ft | 490 kts | 105° |
| 2026-05-07 15:23 | 40.69865 | 6.26015 | 37956 ft | 490 kts | 105° |
| 2026-05-07 15:24 | 40.68934 | 6.34918 | 37959 ft | 491 kts | 105° |
| 2026-05-07 15:24 | 40.67993 | 6.43842 | 37964 ft | 492 kts | 105° |
| 2026-05-07 15:25 | 40.67043 | 6.52766 | 37959 ft | 492 kts | 105° |
| 2026-05-07 15:25 | 40.66084 | 6.61696 | 37963 ft | 493 kts | 104° |
| 2026-05-07 15:26 | 40.65116 | 6.70634 | 37962 ft | 493 kts | 104° |
| 2026-05-07 15:26 | 40.64141 | 6.79573 | 37949 ft | 492 kts | 104° |
| 2026-05-07 15:27 | 40.63161 | 6.88477 | 37946 ft | 493 kts | 105° |
| 2026-05-07 15:27 | 40.62166 | 6.97418 | 37947 ft | 493 kts | 105° |
| 2026-05-07 15:28 | 40.61167 | 7.06350 | 37947 ft | 493 kts | 105° |
| 2026-05-07 15:28 | 40.60158 | 7.15280 | 37945 ft | 493 kts | 105° |
| 2026-05-07 15:29 | 40.59145 | 7.24193 | 37946 ft | 493 kts | 105° |
| 2026-05-07 15:29 | 40.58122 | 7.33116 | 37944 ft | 493 kts | 105° |
| 2026-05-07 15:30 | 40.57092 | 7.42034 | 37945 ft | 493 kts | 105° |
| 2026-05-07 15:30 | 40.56688 | 7.51102 | 37942 ft | 502 kts | 92° |
| 2026-05-07 15:31 | 40.57415 | 7.60257 | 37913 ft | 505 kts | 88° |
| 2026-05-07 15:31 | 40.58219 | 7.69495 | 37942 ft | 509 kts | 88° |
| 2026-05-07 15:32 | 40.59005 | 7.78674 | 37936 ft | 508 kts | 88° |
| 2026-05-07 15:32 | 40.59787 | 7.87907 | 37937 ft | 508 kts | 88° |
| 2026-05-07 15:33 | 40.60562 | 7.97147 | 37913 ft | 508 kts | 88° |
| 2026-05-07 15:33 | 40.61337 | 8.06463 | 37951 ft | 516 kts | 88° |
| 2026-05-07 15:34 | 40.62110 | 8.15809 | 37948 ft | 512 kts | 89° |
| 2026-05-07 15:34 | 40.62202 | 8.20437 | 37946 ft | 502 kts | 100° |
| 2026-05-07 15:34 | 40.61700 | 8.24936 | 37935 ft | 493 kts | 111° |
| 2026-05-07 15:35 | 40.60655 | 8.29180 | 37938 ft | 484 kts | 122° |
| 2026-05-07 15:35 | 40.59148 | 8.33084 | 37936 ft | 476 kts | 128° |
| 2026-05-07 15:35 | 40.55906 | 8.40725 | 37937 ft | 481 kts | 129° |
| 2026-05-07 15:36 | 40.52670 | 8.48388 | 37925 ft | 479 kts | 129° |
| 2026-05-07 15:36 | 40.49437 | 8.56017 | 37924 ft | 476 kts | 129° |
| 2026-05-07 15:37 | 40.46184 | 8.63647 | 37930 ft | 480 kts | 129° |
| 2026-05-07 15:37 | 40.42927 | 8.71283 | 37936 ft | 478 kts | 129° |
| 2026-05-07 15:38 | 40.39653 | 8.78939 | 37932 ft | 484 kts | 130° |
| 2026-05-07 15:38 | 40.36356 | 8.86634 | 37931 ft | 483 kts | 130° |
| 2026-05-07 15:39 | 40.33060 | 8.94305 | 37937 ft | 482 kts | 130° |
| 2026-05-07 15:39 | 40.29762 | 9.01958 | 37939 ft | 483 kts | 130° |
| 2026-05-07 15:40 | 40.26453 | 9.09614 | 37922 ft | 483 kts | 131° |
| 2026-05-07 15:40 | 40.23146 | 9.17260 | 37948 ft | 485 kts | 131° |
| 2026-05-07 15:41 | 40.19828 | 9.24891 | 37950 ft | 485 kts | 131° |
| 2026-05-07 15:41 | 40.16486 | 9.32569 | 37953 ft | 486 kts | 131° |
| 2026-05-07 15:42 | 40.13139 | 9.40239 | 37954 ft | 485 kts | 131° |
| 2026-05-07 15:42 | 40.09789 | 9.47900 | 37925 ft | 486 kts | 133° |
| 2026-05-07 15:43 | 40.06415 | 9.55593 | 37967 ft | 490 kts | 134° |
| 2026-05-07 15:43 | 40.03028 | 9.63303 | 37958 ft | 488 kts | 134° |
| 2026-05-07 15:44 | 39.99649 | 9.70974 | 37958 ft | 488 kts | 134° |
| 2026-05-07 15:44 | 39.96261 | 9.78636 | 37959 ft | 488 kts | 134° |
| 2026-05-07 15:45 | 39.92868 | 9.86289 | 37960 ft | 490 kts | 134° |
| 2026-05-07 15:45 | 39.89423 | 9.94033 | 37946 ft | 494 kts | 134° |
| 2026-05-07 15:46 | 39.84265 | 10.05621 | 37949 ft | 493 kts | 134° |
| 2026-05-07 15:47 | 39.80818 | 10.13332 | 37925 ft | 493 kts | 134° |
| 2026-05-07 15:47 | 39.77374 | 10.21019 | 37919 ft | 492 kts | 134° |
| 2026-05-07 15:48 | 39.73905 | 10.28725 | 37939 ft | 496 kts | 134° |
| 2026-05-07 15:48 | 39.70426 | 10.36456 | 37939 ft | 495 kts | 134° |
| 2026-05-07 15:49 | 39.66969 | 10.44116 | 37939 ft | 495 kts | 134° |
| 2026-05-07 15:49 | 39.63484 | 10.51820 | 37938 ft | 495 kts | 134° |
| 2026-05-07 15:50 | 39.59993 | 10.59513 | 37913 ft | 495 kts | 134° |
| 2026-05-07 15:50 | 39.56470 | 10.67246 | 37941 ft | 500 kts | 134° |
| 2026-05-07 15:51 | 39.52941 | 10.74994 | 37882 ft | 498 kts | 133° |
| 2026-05-07 15:51 | 39.49422 | 10.82693 | 37927 ft | 497 kts | 133° |
| 2026-05-07 15:52 | 39.45895 | 10.90391 | 37923 ft | 497 kts | 133° |
| 2026-05-07 15:52 | 39.42401 | 10.98001 | 37921 ft | 497 kts | 133° |
| 2026-05-07 15:53 | 39.38867 | 11.05681 | 37882 ft | 495 kts | 133° |
| 2026-05-07 15:53 | 39.37112 | 11.09493 | 37537 ft | 492 kts | 133° |
| 2026-05-07 15:53 | 39.35359 | 11.13290 | 36940 ft | 491 kts | 133° |
| 2026-05-07 15:53 | 39.33604 | 11.17080 | 36243 ft | 491 kts | 133° |
| 2026-05-07 15:54 | 39.31849 | 11.20863 | 35526 ft | 492 kts | 133° |
| 2026-05-07 15:54 | 39.30091 | 11.24651 | 34818 ft | 492 kts | 132° |
| 2026-05-07 15:54 | 39.28331 | 11.28440 | 34123 ft | 492 kts | 132° |
| 2026-05-07 15:54 | 39.26572 | 11.32228 | 33327 ft | 492 kts | 131° |
| 2026-05-07 15:55 | 39.24868 | 11.35985 | 32460 ft | 498 kts | 126° |
| 2026-05-07 15:55 | 39.23367 | 11.40145 | 31561 ft | 506 kts | 123° |
| 2026-05-07 15:55 | 39.21946 | 11.44307 | 30751 ft | 507 kts | 122° |
| 2026-05-07 15:55 | 39.20535 | 11.48467 | 30037 ft | 505 kts | 121° |
| 2026-05-07 15:56 | 39.19133 | 11.52587 | 29387 ft | 499 kts | 121° |
| 2026-05-07 15:56 | 39.17741 | 11.56659 | 28757 ft | 493 kts | 121° |
| 2026-05-07 15:56 | 39.16362 | 11.60672 | 28136 ft | 487 kts | 121° |
| 2026-05-07 15:56 | 39.15455 | 11.63301 | 27734 ft | 483 kts | 120° |
| 2026-05-07 15:57 | 39.14094 | 11.67235 | 27132 ft | 477 kts | 120° |
| 2026-05-07 15:57 | 39.12750 | 11.71111 | 26439 ft | 474 kts | 120° |
| 2026-05-07 15:57 | 39.11408 | 11.74975 | 25876 ft | 469 kts | 120° |
| 2026-05-07 15:57 | 39.10085 | 11.78784 | 25320 ft | 463 kts | 120° |
| 2026-05-07 15:58 | 39.08776 | 11.82546 | 24773 ft | 458 kts | 119° |
| 2026-05-07 15:58 | 39.07480 | 11.86266 | 24241 ft | 453 kts | 119° |
| 2026-05-07 15:58 | 39.06199 | 11.89938 | 23702 ft | 448 kts | 119° |
| 2026-05-07 15:58 | 39.04926 | 11.93580 | 23115 ft | 443 kts | 118° |
| 2026-05-07 15:59 | 39.03672 | 11.97169 | 22527 ft | 437 kts | 118° |
| 2026-05-07 15:59 | 39.02431 | 12.00715 | 21931 ft | 432 kts | 118° |
| 2026-05-07 15:59 | 39.01202 | 12.04223 | 21367 ft | 427 kts | 118° |
| 2026-05-07 15:59 | 38.99989 | 12.07682 | 20790 ft | 422 kts | 118° |
| 2026-05-07 16:00 | 38.98789 | 12.11097 | 20237 ft | 417 kts | 118° |
| 2026-05-07 16:00 | 38.97599 | 12.14480 | 19702 ft | 413 kts | 118° |
| 2026-05-07 16:00 | 38.96423 | 12.17820 | 19176 ft | 408 kts | 118° |
| 2026-05-07 16:00 | 38.95262 | 12.21114 | 18657 ft | 403 kts | 118° |
| 2026-05-07 16:01 | 38.94110 | 12.24377 | 18130 ft | 398 kts | 118° |
| 2026-05-07 16:01 | 38.92973 | 12.27594 | 17547 ft | 394 kts | 117° |
| 2026-05-07 16:01 | 38.91838 | 12.30801 | 16857 ft | 393 kts | 117° |
| 2026-05-07 16:01 | 38.90715 | 12.33973 | 16324 ft | 388 kts | 117° |
| 2026-05-07 16:02 | 38.89604 | 12.37108 | 15795 ft | 383 kts | 117° |
| 2026-05-07 16:02 | 38.88506 | 12.40206 | 15268 ft | 379 kts | 116° |
| 2026-05-07 16:02 | 38.87231 | 12.43121 | 14743 ft | 372 kts | 130° |
| 2026-05-07 16:02 | 38.85419 | 12.45419 | 14213 ft | 363 kts | 147° |
| 2026-05-07 16:03 | 38.83267 | 12.46949 | 13689 ft | 357 kts | 158° |
| 2026-05-07 16:03 | 38.81031 | 12.48284 | 13138 ft | 352 kts | 158° |
| 2026-05-07 16:03 | 38.78822 | 12.49605 | 12620 ft | 348 kts | 158° |
| 2026-05-07 16:03 | 38.76648 | 12.50907 | 12115 ft | 343 kts | 157° |
| 2026-05-07 16:04 | 38.74497 | 12.52194 | 11599 ft | 339 kts | 156° |
| 2026-05-07 16:04 | 38.72368 | 12.53469 | 11089 ft | 336 kts | 155° |
| 2026-05-07 16:04 | 38.70262 | 12.54730 | 10598 ft | 332 kts | 155° |
| 2026-05-07 16:04 | 38.68185 | 12.55973 | 10178 ft | 326 kts | 154° |
| 2026-05-07 16:05 | 38.66179 | 12.57182 | 10006 ft | 313 kts | 156° |
| 2026-05-07 16:05 | 38.64247 | 12.58356 | 9850 ft | 301 kts | 156° |
| 2026-05-07 16:05 | 38.62387 | 12.59478 | 9608 ft | 292 kts | 157° |
| 2026-05-07 16:05 | 38.60556 | 12.60574 | 9198 ft | 289 kts | 156° |
| 2026-05-07 16:06 | 38.58739 | 12.61655 | 8791 ft | 287 kts | 156° |
| 2026-05-07 16:06 | 38.56938 | 12.62726 | 8396 ft | 284 kts | 155° |
| 2026-05-07 16:06 | 38.55154 | 12.63786 | 8024 ft | 281 kts | 154° |
| 2026-05-07 16:06 | 38.53392 | 12.64835 | 7887 ft | 280 kts | 154° |
| 2026-05-07 16:07 | 38.51624 | 12.65892 | 7850 ft | 281 kts | 154° |
| 2026-05-07 16:07 | 38.49851 | 12.66950 | 7852 ft | 280 kts | 154° |
| 2026-05-07 16:07 | 38.48084 | 12.68004 | 7654 ft | 280 kts | 154° |
| 2026-05-07 16:07 | 38.46324 | 12.69053 | 7335 ft | 278 kts | 153° |
| 2026-05-07 16:08 | 38.44594 | 12.70083 | 7157 ft | 269 kts | 153° |
| 2026-05-07 16:08 | 38.42938 | 12.71068 | 7035 ft | 257 kts | 153° |
| 2026-05-07 16:08 | 38.41342 | 12.72026 | 6797 ft | 252 kts | 154° |
| 2026-05-07 16:08 | 38.39762 | 12.72974 | 6479 ft | 250 kts | 154° |
| 2026-05-07 16:09 | 38.38193 | 12.73911 | 6171 ft | 248 kts | 153° |
| 2026-05-07 16:09 | 38.36635 | 12.74841 | 5817 ft | 247 kts | 154° |
| 2026-05-07 16:09 | 38.35097 | 12.75759 | 5469 ft | 247 kts | 154° |
| 2026-05-07 16:09 | 38.33545 | 12.76685 | 5137 ft | 246 kts | 154° |
| 2026-05-07 16:10 | 38.32006 | 12.77598 | 4908 ft | 241 kts | 155° |
| 2026-05-07 16:10 | 38.30450 | 12.78517 | 4858 ft | 246 kts | 155° |
| 2026-05-07 16:10 | 38.28903 | 12.79427 | 4860 ft | 244 kts | 155° |
| 2026-05-07 16:10 | 38.27377 | 12.80325 | 4858 ft | 245 kts | 155° |
| 2026-05-07 16:11 | 38.25847 | 12.81225 | 4855 ft | 237 kts | 154° |
| 2026-05-07 16:11 | 38.24518 | 12.82322 | 4856 ft | 221 kts | 137° |
| 2026-05-07 16:11 | 38.23544 | 12.83749 | 4855 ft | 209 kts | 126° |
| 2026-05-07 16:11 | 38.22657 | 12.85258 | 4854 ft | 214 kts | 127° |
| 2026-05-07 16:12 | 38.21758 | 12.86748 | 4852 ft | 211 kts | 128° |
| 2026-05-07 16:12 | 38.20863 | 12.88215 | 4677 ft | 210 kts | 128° |
| 2026-05-07 16:12 | 38.19963 | 12.89682 | 4403 ft | 211 kts | 128° |
| 2026-05-07 16:12 | 38.19062 | 12.91146 | 4145 ft | 210 kts | 128° |
| 2026-05-07 16:13 | 38.18179 | 12.92581 | 4048 ft | 201 kts | 127° |
| 2026-05-07 16:13 | 38.17331 | 12.93961 | 3896 ft | 195 kts | 127° |
| 2026-05-07 16:13 | 38.16514 | 12.95289 | 3760 ft | 188 kts | 127° |
| 2026-05-07 16:13 | 38.15702 | 12.96611 | 3431 ft | 191 kts | 127° |
| 2026-05-07 16:14 | 38.14866 | 12.97979 | 2816 ft | 203 kts | 125° |
| 2026-05-07 16:14 | 38.14390 | 12.99670 | 2251 ft | 207 kts | 89° |
| 2026-05-07 16:14 | 38.14707 | 13.01416 | 1933 ft | 201 kts | 66° |
| 2026-05-07 16:14 | 38.15272 | 13.02934 | 1630 ft | 180 kts | 61° |
| 2026-05-07 16:15 | 38.15858 | 13.04248 | 1317 ft | 165 kts | 54° |
| 2026-05-07 16:15 | 38.16398 | 13.05533 | 764 ft | 166 kts | 62° |
| 2026-05-07 16:15 | 38.16853 | 13.06875 | 407 ft | 170 kts | 63° |
| 2026-05-07 16:15 | 38.17304 | 13.08262 | 196 ft | 170 kts | 64° |
| 2026-05-07 16:16 | 38.17758 | 13.09615 | 87 ft | 156 kts | 62° |
| 2026-05-07 16:16 | 38.18125 | 13.10701 | 65 ft | 106 kts | 67° |
| 2026-05-07 16:16 | 38.18333 | 13.11329 | 62 ft | 49 kts | 68° |
| 2026-05-07 16:16 | 38.18434 | 13.11630 | 68 ft | 36 kts | 66° |
| 2026-05-07 16:17 | 38.18503 | 13.11839 | 69 ft | 24 kts | 68° |
| 2026-05-07 16:17 | 38.18594 | 13.11857 | 62 ft | 16 kts | 309° |
| 2026-05-07 16:17 | 38.18605 | 13.11715 | 67 ft | 18 kts | 276° |
| 2026-05-07 16:17 | 38.18609 | 13.11540 | 65 ft | 20 kts | 267° |
| 2026-05-07 16:18 | 38.18566 | 13.11412 | 65 ft | 16 kts | 251° |
| 2026-05-07 16:18 | 38.18518 | 13.11268 | 57 ft | 20 kts | 246° |
| 2026-05-07 16:18 | 38.18459 | 13.11097 | 59 ft | 23 kts | 248° |
| 2026-05-07 16:18 | 38.18428 | 13.10957 | 65 ft | 11 kts | 293° |
| 2026-05-07 16:19 | 38.18469 | 13.10900 | 58 ft | 9 kts | 287° |
| 2026-05-07 16:19 | 38.18483 | 13.10834 | 58 ft | 10 kts | 298° |
| 2026-05-07 16:19 | 38.18542 | 13.10791 | 60 ft | 8 kts | 343° |
| 2026-05-07 16:19 | 38.18589 | 13.10778 | 61 ft | 8 kts | 320° |
| 2026-05-07 16:20 | 38.18615 | 13.10724 | 56 ft | 0 kts | 299° |